N321GM KLAX-KIFP
Flight info
| Callsign | N321GM |
|---|---|
| Flight time | 1h 3m |
| Altitude | 29000 |
| Route | ORCKA5 MISEN GFS LAKIY |
| Aircraft | MU2/L-VGDW/C |
Departure
| Time | 2026-04-29 01:51 |
|---|---|
| Airport | Los Angeles International Airport (KLAX) |
Arrival
| Time | 2026-04-29 02:54 |
|---|---|
| Airport | Laughlin Bullhead International Airport (KIFP) |
| Time | Latitude | Longitude | Altitude | Speed | Heading |
|---|---|---|---|---|---|
| 2026-04-29 01:33 | 33.93327 | -118.39762 | 129 ft | 0 kts | 285° |
| 2026-04-29 01:36 | 33.93327 | -118.39763 | 129 ft | 0 kts | 284° |
| 2026-04-29 01:36 | 33.93328 | -118.39763 | 129 ft | 0 kts | 284° |
| 2026-04-29 01:39 | 33.93328 | -118.39764 | 129 ft | 0 kts | 284° |
| 2026-04-29 01:45 | 33.93328 | -118.39765 | 129 ft | 0 kts | 284° |
| 2026-04-29 01:45 | 33.93328 | -118.39766 | 129 ft | 1 kts | 284° |
| 2026-04-29 01:46 | 33.93341 | -118.39785 | 129 ft | 4 kts | 317° |
| 2026-04-29 01:46 | 33.93387 | -118.39808 | 129 ft | 10 kts | 348° |
| 2026-04-29 01:46 | 33.93463 | -118.39792 | 129 ft | 12 kts | 75° |
| 2026-04-29 01:46 | 33.93474 | -118.39685 | 129 ft | 14 kts | 83° |
| 2026-04-29 01:47 | 33.93489 | -118.39537 | 129 ft | 22 kts | 83° |
| 2026-04-29 01:47 | 33.93511 | -118.39346 | 129 ft | 24 kts | 79° |
| 2026-04-29 01:47 | 33.93537 | -118.39135 | 129 ft | 26 kts | 83° |
| 2026-04-29 01:47 | 33.93555 | -118.38902 | 129 ft | 28 kts | 83° |
| 2026-04-29 01:48 | 33.93579 | -118.38667 | 129 ft | 28 kts | 83° |
| 2026-04-29 01:48 | 33.93602 | -118.38429 | 129 ft | 29 kts | 82° |
| 2026-04-29 01:48 | 33.93623 | -118.38206 | 129 ft | 13 kts | 74° |
| 2026-04-29 01:48 | 33.93635 | -118.38230 | 129 ft | 6 kts | 260° |
| 2026-04-29 01:49 | 33.93644 | -118.38278 | 129 ft | 6 kts | 310° |
| 2026-04-29 01:49 | 33.93655 | -118.38287 | 129 ft | 0 kts | 343° |
| 2026-04-29 01:50 | 33.93656 | -118.38288 | 129 ft | 1 kts | 343° |
| 2026-04-29 01:50 | 33.93723 | -118.38308 | 129 ft | 14 kts | 333° |
| 2026-04-29 01:50 | 33.93744 | -118.38422 | 129 ft | 16 kts | 266° |
| 2026-04-29 01:50 | 33.93701 | -118.38867 | 135 ft | 112 kts | 262° |
| 2026-04-29 01:51 | 33.93584 | -118.40012 | 689 ft | 152 kts | 263° |
| 2026-04-29 01:51 | 33.93505 | -118.41309 | 1527 ft | 157 kts | 265° |
| 2026-04-29 01:51 | 33.93482 | -118.42619 | 2494 ft | 157 kts | 270° |
| 2026-04-29 01:51 | 33.93564 | -118.43948 | 3437 ft | 160 kts | 269° |
| 2026-04-29 01:52 | 33.93517 | -118.45270 | 4449 ft | 154 kts | 262° |
| 2026-04-29 01:52 | 33.93126 | -118.46494 | 5323 ft | 172 kts | 238° |
| 2026-04-29 01:52 | 33.92225 | -118.47397 | 6212 ft | 166 kts | 205° |
| 2026-04-29 01:52 | 33.91083 | -118.47664 | 7190 ft | 170 kts | 193° |
| 2026-04-29 01:53 | 33.89894 | -118.47965 | 7858 ft | 185 kts | 197° |
| 2026-04-29 01:53 | 33.88655 | -118.48222 | 8776 ft | 179 kts | 193° |
| 2026-04-29 01:53 | 33.87393 | -118.48426 | 9792 ft | 186 kts | 192° |
| 2026-04-29 01:53 | 33.85977 | -118.48653 | 10041 ft | 227 kts | 192° |
| 2026-04-29 01:54 | 33.84338 | -118.48931 | 10001 ft | 244 kts | 192° |
| 2026-04-29 01:54 | 33.82637 | -118.49225 | 10001 ft | 249 kts | 192° |
| 2026-04-29 01:54 | 33.80914 | -118.49523 | 10002 ft | 251 kts | 192° |
| 2026-04-29 01:54 | 33.79185 | -118.49823 | 10035 ft | 249 kts | 192° |
| 2026-04-29 01:55 | 33.77575 | -118.50093 | 10860 ft | 221 kts | 192° |
| 2026-04-29 01:55 | 33.76144 | -118.50310 | 12023 ft | 194 kts | 192° |
| 2026-04-29 01:55 | 33.74988 | -118.50463 | 13201 ft | 175 kts | 192° |
| 2026-04-29 01:55 | 33.73785 | -118.50593 | 14527 ft | 163 kts | 192° |
| 2026-04-29 01:56 | 33.72668 | -118.50679 | 15755 ft | 160 kts | 189° |
| 2026-04-29 01:56 | 33.71594 | -118.50187 | 16830 ft | 187 kts | 147° |
| 2026-04-29 01:56 | 33.70518 | -118.48948 | 17039 ft | 238 kts | 136° |
| 2026-04-29 01:56 | 33.69396 | -118.47303 | 17025 ft | 270 kts | 120° |
| 2026-04-29 01:57 | 33.69034 | -118.45063 | 17004 ft | 282 kts | 85° |
| 2026-04-29 01:57 | 33.69325 | -118.42717 | 17004 ft | 286 kts | 76° |
| 2026-04-29 01:57 | 33.69346 | -118.40307 | 17005 ft | 292 kts | 99° |
| 2026-04-29 01:57 | 33.69032 | -118.37914 | 17000 ft | 294 kts | 95° |
| 2026-04-29 01:58 | 33.69019 | -118.35484 | 17001 ft | 293 kts | 84° |
| 2026-04-29 01:58 | 33.69231 | -118.33043 | 17000 ft | 292 kts | 77° |
| 2026-04-29 01:58 | 33.69797 | -118.30745 | 17373 ft | 274 kts | 65° |
| 2026-04-29 01:58 | 33.70475 | -118.28697 | 18102 ft | 260 kts | 62° |
| 2026-04-29 01:59 | 33.71164 | -118.26716 | 18848 ft | 254 kts | 63° |
| 2026-04-29 01:59 | 33.71859 | -118.24760 | 19586 ft | 255 kts | 65° |
| 2026-04-29 01:59 | 33.72664 | -118.22848 | 20335 ft | 257 kts | 65° |
| 2026-04-29 01:59 | 33.73459 | -118.20942 | 21188 ft | 251 kts | 67° |
| 2026-04-29 02:00 | 33.74167 | -118.19049 | 22134 ft | 245 kts | 69° |
| 2026-04-29 02:00 | 33.74825 | -118.17211 | 23079 ft | 241 kts | 70° |
| 2026-04-29 02:00 | 33.75499 | -118.15385 | 24038 ft | 238 kts | 70° |
| 2026-04-29 02:00 | 33.76198 | -118.13565 | 24824 ft | 246 kts | 70° |
| 2026-04-29 02:01 | 33.76941 | -118.11645 | 25449 ft | 258 kts | 70° |
| 2026-04-29 02:01 | 33.77713 | -118.09653 | 26025 ft | 267 kts | 70° |
| 2026-04-29 02:01 | 33.78508 | -118.07605 | 26586 ft | 274 kts | 70° |
| 2026-04-29 02:01 | 33.79321 | -118.05514 | 27141 ft | 278 kts | 70° |
| 2026-04-29 02:02 | 33.80237 | -118.03444 | 27693 ft | 285 kts | 56° |
| 2026-04-29 02:02 | 33.81614 | -118.01721 | 28248 ft | 288 kts | 40° |
| 2026-04-29 02:02 | 33.83214 | -118.00248 | 28798 ft | 290 kts | 34° |
| 2026-04-29 02:02 | 33.84910 | -117.98850 | 28964 ft | 306 kts | 32° |
| 2026-04-29 02:03 | 33.86737 | -117.97378 | 29010 ft | 319 kts | 32° |
| 2026-04-29 02:03 | 33.88579 | -117.95872 | 28999 ft | 329 kts | 33° |
| 2026-04-29 02:03 | 33.92413 | -117.92624 | 29000 ft | 338 kts | 34° |
| 2026-04-29 02:04 | 33.96079 | -117.89401 | 29002 ft | 341 kts | 35° |
| 2026-04-29 02:04 | 33.99891 | -117.85977 | 29003 ft | 343 kts | 36° |
| 2026-04-29 02:05 | 34.03705 | -117.82514 | 29004 ft | 343 kts | 36° |
| 2026-04-29 02:05 | 34.07434 | -117.78896 | 29004 ft | 343 kts | 42° |
| 2026-04-29 02:06 | 34.10838 | -117.74850 | 29005 ft | 343 kts | 47° |
| 2026-04-29 02:06 | 34.14107 | -117.70638 | 29005 ft | 343 kts | 48° |
| 2026-04-29 02:07 | 34.17304 | -117.66392 | 29005 ft | 343 kts | 49° |
| 2026-04-29 02:07 | 34.20513 | -117.62080 | 28771 ft | 350 kts | 49° |
| 2026-04-29 02:08 | 34.22150 | -117.59868 | 28451 ft | 356 kts | 49° |
| 2026-04-29 02:08 | 34.23795 | -117.57641 | 28111 ft | 360 kts | 49° |
| 2026-04-29 02:08 | 34.25482 | -117.55354 | 27753 ft | 362 kts | 49° |
| 2026-04-29 02:08 | 34.27159 | -117.53076 | 27365 ft | 363 kts | 49° |
| 2026-04-29 02:09 | 34.28825 | -117.50812 | 27140 ft | 359 kts | 49° |
| 2026-04-29 02:09 | 34.30476 | -117.48568 | 27036 ft | 353 kts | 49° |
| 2026-04-29 02:09 | 34.32097 | -117.46363 | 27000 ft | 348 kts | 49° |
| 2026-04-29 02:09 | 34.33696 | -117.44185 | 26997 ft | 344 kts | 49° |
| 2026-04-29 02:10 | 34.35286 | -117.42019 | 26997 ft | 342 kts | 49° |
| 2026-04-29 02:10 | 34.36862 | -117.39869 | 26996 ft | 341 kts | 49° |
| 2026-04-29 02:10 | 34.38413 | -117.37752 | 26996 ft | 340 kts | 50° |
| 2026-04-29 02:10 | 34.40001 | -117.35582 | 26995 ft | 340 kts | 50° |
| 2026-04-29 02:11 | 34.41567 | -117.33440 | 26995 ft | 339 kts | 50° |
| 2026-04-29 02:11 | 34.43115 | -117.31321 | 26995 ft | 339 kts | 50° |
| 2026-04-29 02:11 | 34.44679 | -117.29181 | 26995 ft | 339 kts | 50° |
| 2026-04-29 02:11 | 34.46241 | -117.27041 | 26995 ft | 339 kts | 50° |
| 2026-04-29 02:12 | 34.47806 | -117.24895 | 26995 ft | 339 kts | 50° |
| 2026-04-29 02:12 | 34.49365 | -117.22757 | 26995 ft | 339 kts | 50° |
| 2026-04-29 02:12 | 34.50930 | -117.20609 | 26995 ft | 339 kts | 50° |
| 2026-04-29 02:12 | 34.52489 | -117.18468 | 26995 ft | 339 kts | 50° |
| 2026-04-29 02:13 | 34.54049 | -117.16325 | 26995 ft | 339 kts | 50° |
| 2026-04-29 02:13 | 34.55614 | -117.14172 | 26995 ft | 339 kts | 50° |
| 2026-04-29 02:13 | 34.57159 | -117.12047 | 26995 ft | 339 kts | 50° |
| 2026-04-29 02:13 | 34.58716 | -117.09904 | 26995 ft | 339 kts | 50° |
| 2026-04-29 02:14 | 34.60273 | -117.07759 | 26995 ft | 339 kts | 50° |
| 2026-04-29 02:14 | 34.61835 | -117.05606 | 26995 ft | 339 kts | 50° |
| 2026-04-29 02:14 | 34.63396 | -117.03453 | 26995 ft | 339 kts | 50° |
| 2026-04-29 02:14 | 34.64954 | -117.01303 | 26995 ft | 339 kts | 50° |
| 2026-04-29 02:15 | 34.66499 | -116.99170 | 26995 ft | 339 kts | 50° |
| 2026-04-29 02:15 | 34.68073 | -116.96995 | 26984 ft | 340 kts | 50° |
| 2026-04-29 02:15 | 34.69661 | -116.94798 | 26540 ft | 352 kts | 50° |
| 2026-04-29 02:15 | 34.71292 | -116.92540 | 26072 ft | 358 kts | 50° |
| 2026-04-29 02:16 | 34.72942 | -116.90255 | 25598 ft | 360 kts | 50° |
| 2026-04-29 02:16 | 34.74595 | -116.87967 | 25124 ft | 360 kts | 50° |
| 2026-04-29 02:16 | 34.76236 | -116.85693 | 24651 ft | 359 kts | 50° |
| 2026-04-29 02:16 | 34.77885 | -116.83407 | 24173 ft | 357 kts | 50° |
| 2026-04-29 02:17 | 34.79509 | -116.81156 | 23065 ft | 356 kts | 49° |
| 2026-04-29 02:17 | 34.81105 | -116.78944 | 21859 ft | 340 kts | 48° |
| 2026-04-29 02:17 | 34.82638 | -116.76821 | 20669 ft | 329 kts | 48° |
| 2026-04-29 02:17 | 34.84099 | -116.74794 | 20184 ft | 313 kts | 49° |
| 2026-04-29 02:18 | 34.85551 | -116.72773 | 19591 ft | 320 kts | 49° |
| 2026-04-29 02:18 | 34.87025 | -116.70717 | 18929 ft | 324 kts | 42° |
| 2026-04-29 02:18 | 34.88469 | -116.68677 | 18263 ft | 315 kts | 44° |
| 2026-04-29 02:18 | 34.89898 | -116.66674 | 17585 ft | 310 kts | 44° |
| 2026-04-29 02:19 | 34.90841 | -116.65359 | 17136 ft | 309 kts | 44° |
| 2026-04-29 02:19 | 34.92252 | -116.63397 | 16461 ft | 307 kts | 44° |
| 2026-04-29 02:19 | 34.93648 | -116.61418 | 15783 ft | 308 kts | 49° |
| 2026-04-29 02:19 | 34.95018 | -116.58388 | 15073 ft | 305 kts | 65° |
| 2026-04-29 02:20 | 34.95501 | -116.56777 | 15012 ft | 295 kts | 70° |
| 2026-04-29 02:20 | 34.96072 | -116.54420 | 14997 ft | 286 kts | 73° |
| 2026-04-29 02:20 | 34.96554 | -116.52041 | 14998 ft | 292 kts | 75° |
| 2026-04-29 02:20 | 34.96987 | -116.49602 | 14999 ft | 294 kts | 77° |
| 2026-04-29 02:21 | 34.97381 | -116.47151 | 15000 ft | 295 kts | 78° |
| 2026-04-29 02:21 | 34.97749 | -116.44692 | 15000 ft | 296 kts | 78° |
| 2026-04-29 02:21 | 34.98105 | -116.42192 | 14839 ft | 301 kts | 79° |
| 2026-04-29 02:21 | 34.98455 | -116.39649 | 14538 ft | 307 kts | 79° |
| 2026-04-29 02:22 | 34.98797 | -116.37088 | 14147 ft | 311 kts | 80° |
| 2026-04-29 02:22 | 34.99140 | -116.34471 | 13747 ft | 313 kts | 81° |
| 2026-04-29 02:22 | 34.99477 | -116.31853 | 13347 ft | 312 kts | 81° |
| 2026-04-29 02:22 | 34.99809 | -116.29243 | 12947 ft | 311 kts | 81° |
| 2026-04-29 02:23 | 35.00138 | -116.26632 | 12546 ft | 310 kts | 81° |
| 2026-04-29 02:23 | 35.00462 | -116.24040 | 12146 ft | 309 kts | 81° |
| 2026-04-29 02:23 | 35.00785 | -116.21443 | 11745 ft | 308 kts | 81° |
| 2026-04-29 02:23 | 35.01104 | -116.18873 | 11345 ft | 307 kts | 82° |
| 2026-04-29 02:24 | 35.01422 | -116.16297 | 10944 ft | 306 kts | 82° |
| 2026-04-29 02:24 | 35.01737 | -116.13737 | 10544 ft | 305 kts | 82° |
| 2026-04-29 02:24 | 35.02050 | -116.11185 | 10185 ft | 300 kts | 82° |
| 2026-04-29 02:25 | 35.02649 | -116.06277 | 10015 ft | 286 kts | 82° |
| 2026-04-29 02:25 | 35.02930 | -116.03968 | 10004 ft | 283 kts | 82° |
| 2026-04-29 02:25 | 35.03197 | -116.01756 | 10003 ft | 281 kts | 82° |
| 2026-04-29 02:25 | 35.03482 | -115.99395 | 10003 ft | 281 kts | 82° |
| 2026-04-29 02:26 | 35.03766 | -115.97038 | 10003 ft | 281 kts | 82° |
| 2026-04-29 02:26 | 35.04050 | -115.94679 | 10003 ft | 281 kts | 82° |
| 2026-04-29 02:26 | 35.04333 | -115.92325 | 10003 ft | 281 kts | 82° |
| 2026-04-29 02:26 | 35.04617 | -115.89967 | 10003 ft | 281 kts | 82° |
| 2026-04-29 02:27 | 35.04900 | -115.87612 | 10003 ft | 281 kts | 82° |
| 2026-04-29 02:27 | 35.05183 | -115.85254 | 10003 ft | 281 kts | 82° |
| 2026-04-29 02:27 | 35.05466 | -115.82894 | 10003 ft | 281 kts | 82° |
| 2026-04-29 02:27 | 35.05747 | -115.80542 | 10003 ft | 280 kts | 82° |
| 2026-04-29 02:28 | 35.06029 | -115.78186 | 10003 ft | 280 kts | 82° |
| 2026-04-29 02:28 | 35.06310 | -115.75828 | 10003 ft | 280 kts | 82° |
| 2026-04-29 02:28 | 35.06591 | -115.73470 | 10003 ft | 280 kts | 82° |
| 2026-04-29 02:28 | 35.06871 | -115.71119 | 10003 ft | 280 kts | 82° |
| 2026-04-29 02:29 | 35.07151 | -115.68768 | 10003 ft | 280 kts | 82° |
| 2026-04-29 02:29 | 35.07430 | -115.66412 | 10003 ft | 280 kts | 82° |
| 2026-04-29 02:29 | 35.07705 | -115.64090 | 10003 ft | 280 kts | 82° |
| 2026-04-29 02:29 | 35.07983 | -115.61737 | 10003 ft | 280 kts | 82° |
| 2026-04-29 02:30 | 35.08260 | -115.59387 | 10003 ft | 280 kts | 82° |
| 2026-04-29 02:30 | 35.08538 | -115.57032 | 10003 ft | 280 kts | 82° |
| 2026-04-29 02:30 | 35.08814 | -115.54685 | 10003 ft | 280 kts | 82° |
| 2026-04-29 02:30 | 35.09089 | -115.52336 | 10003 ft | 279 kts | 82° |
| 2026-04-29 02:31 | 35.09364 | -115.49996 | 10003 ft | 279 kts | 82° |
| 2026-04-29 02:31 | 35.09639 | -115.47642 | 10003 ft | 279 kts | 82° |
| 2026-04-29 02:31 | 35.09912 | -115.45307 | 10003 ft | 279 kts | 82° |
| 2026-04-29 02:31 | 35.10186 | -115.42954 | 10003 ft | 279 kts | 82° |
| 2026-04-29 02:32 | 35.10459 | -115.40610 | 10003 ft | 279 kts | 82° |
| 2026-04-29 02:32 | 35.10729 | -115.38293 | 10003 ft | 279 kts | 82° |
| 2026-04-29 02:32 | 35.11000 | -115.35953 | 10003 ft | 279 kts | 82° |
| 2026-04-29 02:32 | 35.11272 | -115.33611 | 10003 ft | 279 kts | 82° |
| 2026-04-29 02:33 | 35.11543 | -115.31268 | 10003 ft | 278 kts | 82° |
| 2026-04-29 02:33 | 35.11814 | -115.28922 | 10003 ft | 279 kts | 82° |
| 2026-04-29 02:33 | 35.12084 | -115.26578 | 10003 ft | 279 kts | 82° |
| 2026-04-29 02:33 | 35.12354 | -115.24237 | 10003 ft | 279 kts | 82° |
| 2026-04-29 02:34 | 35.12627 | -115.21892 | 10003 ft | 279 kts | 81° |
| 2026-04-29 02:34 | 35.13174 | -115.19624 | 10003 ft | 278 kts | 67° |
| 2026-04-29 02:34 | 35.14025 | -115.17505 | 10005 ft | 278 kts | 60° |
| 2026-04-29 02:34 | 35.15034 | -115.15488 | 10005 ft | 277 kts | 56° |
| 2026-04-29 02:35 | 35.15975 | -115.13802 | 10005 ft | 277 kts | 54° |
| 2026-04-29 02:35 | 35.17106 | -115.11896 | 10005 ft | 277 kts | 52° |
| 2026-04-29 02:35 | 35.18267 | -115.10017 | 10005 ft | 277 kts | 51° |
| 2026-04-29 02:35 | 35.19444 | -115.08156 | 10000 ft | 277 kts | 51° |
| 2026-04-29 02:36 | 35.20638 | -115.06296 | 9730 ft | 284 kts | 50° |
| 2026-04-29 02:36 | 35.21892 | -115.04362 | 9426 ft | 287 kts | 50° |
| 2026-04-29 02:36 | 35.23118 | -115.02480 | 9132 ft | 288 kts | 50° |
| 2026-04-29 02:36 | 35.24374 | -115.00560 | 8830 ft | 288 kts | 50° |
| 2026-04-29 02:37 | 35.25623 | -114.98653 | 8530 ft | 287 kts | 50° |
| 2026-04-29 02:37 | 35.26872 | -114.96746 | 8237 ft | 286 kts | 50° |
| 2026-04-29 02:37 | 35.28103 | -114.94866 | 8098 ft | 281 kts | 50° |
| 2026-04-29 02:37 | 35.29317 | -114.93011 | 8025 ft | 277 kts | 51° |
| 2026-04-29 02:38 | 35.30515 | -114.91178 | 8005 ft | 273 kts | 51° |
| 2026-04-29 02:38 | 35.31683 | -114.89390 | 8004 ft | 272 kts | 51° |
| 2026-04-29 02:38 | 35.32862 | -114.87583 | 8003 ft | 271 kts | 51° |
| 2026-04-29 02:38 | 35.34042 | -114.85777 | 8003 ft | 271 kts | 51° |
| 2026-04-29 02:39 | 35.35223 | -114.83967 | 8003 ft | 271 kts | 51° |
| 2026-04-29 02:39 | 35.36399 | -114.82165 | 8003 ft | 271 kts | 51° |
| 2026-04-29 02:39 | 35.37578 | -114.80359 | 8003 ft | 271 kts | 51° |
| 2026-04-29 02:39 | 35.38756 | -114.78553 | 8003 ft | 271 kts | 51° |
| 2026-04-29 02:40 | 35.39931 | -114.76751 | 8003 ft | 271 kts | 51° |
| 2026-04-29 02:40 | 35.41110 | -114.74942 | 8003 ft | 271 kts | 51° |
| 2026-04-29 02:40 | 35.42285 | -114.73139 | 8003 ft | 271 kts | 51° |
| 2026-04-29 02:40 | 35.43462 | -114.71332 | 8003 ft | 271 kts | 51° |
| 2026-04-29 02:41 | 35.44635 | -114.69530 | 8003 ft | 271 kts | 51° |
| 2026-04-29 02:41 | 35.45799 | -114.67742 | 8003 ft | 271 kts | 51° |
| 2026-04-29 02:41 | 35.46870 | -114.65842 | 8005 ft | 271 kts | 54° |
| 2026-04-29 02:41 | 35.48321 | -114.64440 | 7909 ft | 270 kts | 18° |
| 2026-04-29 02:42 | 35.50096 | -114.64252 | 7672 ft | 244 kts | 353° |
| 2026-04-29 02:42 | 35.51727 | -114.64593 | 7422 ft | 237 kts | 345° |
| 2026-04-29 02:42 | 35.53347 | -114.65079 | 7175 ft | 242 kts | 343° |
| 2026-04-29 02:42 | 35.54979 | -114.65636 | 6925 ft | 243 kts | 341° |
| 2026-04-29 02:43 | 35.56585 | -114.66278 | 6745 ft | 241 kts | 338° |
| 2026-04-29 02:43 | 35.58143 | -114.67016 | 6640 ft | 237 kts | 334° |
| 2026-04-29 02:43 | 35.59343 | -114.68251 | 6603 ft | 227 kts | 296° |
| 2026-04-29 02:43 | 35.59576 | -114.70102 | 6607 ft | 221 kts | 257° |
| 2026-04-29 02:44 | 35.58677 | -114.71560 | 6608 ft | 221 kts | 210° |
| 2026-04-29 02:44 | 35.57160 | -114.71710 | 6609 ft | 221 kts | 163° |
| 2026-04-29 02:44 | 35.55980 | -114.70543 | 6617 ft | 229 kts | 132° |
| 2026-04-29 02:44 | 35.54989 | -114.68985 | 6612 ft | 234 kts | 134° |
| 2026-04-29 02:45 | 35.53782 | -114.67645 | 6612 ft | 235 kts | 142° |
| 2026-04-29 02:45 | 35.52516 | -114.66375 | 6609 ft | 235 kts | 148° |
| 2026-04-29 02:45 | 35.51085 | -114.65426 | 6612 ft | 230 kts | 158° |
| 2026-04-29 02:45 | 35.49637 | -114.64718 | 6607 ft | 220 kts | 162° |
| 2026-04-29 02:46 | 35.48202 | -114.64115 | 6605 ft | 217 kts | 163° |
| 2026-04-29 02:46 | 35.46772 | -114.63545 | 6336 ft | 214 kts | 164° |
| 2026-04-29 02:46 | 35.45376 | -114.62993 | 5756 ft | 208 kts | 163° |
| 2026-04-29 02:46 | 35.44014 | -114.62455 | 5181 ft | 204 kts | 163° |
| 2026-04-29 02:47 | 35.42669 | -114.61925 | 4650 ft | 200 kts | 163° |
| 2026-04-29 02:47 | 35.41367 | -114.61410 | 4230 ft | 193 kts | 163° |
| 2026-04-29 02:47 | 35.40112 | -114.60913 | 3809 ft | 193 kts | 163° |
| 2026-04-29 02:47 | 35.38844 | -114.60414 | 3442 ft | 186 kts | 162° |
| 2026-04-29 02:48 | 35.37626 | -114.59934 | 3338 ft | 185 kts | 163° |
| 2026-04-29 02:48 | 35.36407 | -114.59454 | 3305 ft | 181 kts | 162° |
| 2026-04-29 02:48 | 35.35215 | -114.58983 | 3299 ft | 177 kts | 162° |
| 2026-04-29 02:48 | 35.34052 | -114.58523 | 3296 ft | 175 kts | 162° |
| 2026-04-29 02:49 | 35.32906 | -114.58069 | 3298 ft | 173 kts | 162° |
| 2026-04-29 02:49 | 35.31758 | -114.57615 | 3303 ft | 171 kts | 162° |
| 2026-04-29 02:49 | 35.30627 | -114.57261 | 3301 ft | 160 kts | 169° |
| 2026-04-29 02:49 | 35.29541 | -114.57063 | 3159 ft | 154 kts | 173° |
| 2026-04-29 02:50 | 35.28544 | -114.56942 | 2995 ft | 137 kts | 175° |
| 2026-04-29 02:50 | 35.27639 | -114.56856 | 2804 ft | 128 kts | 176° |
| 2026-04-29 02:50 | 35.26767 | -114.56785 | 2598 ft | 124 kts | 176° |
| 2026-04-29 02:50 | 35.25796 | -114.56712 | 2438 ft | 136 kts | 176° |
| 2026-04-29 02:51 | 35.24900 | -114.56643 | 2211 ft | 123 kts | 176° |
| 2026-04-29 02:51 | 35.24079 | -114.56582 | 2008 ft | 114 kts | 176° |
| 2026-04-29 02:51 | 35.23283 | -114.56522 | 1876 ft | 114 kts | 176° |
| 2026-04-29 02:51 | 35.22482 | -114.56462 | 1755 ft | 117 kts | 176° |
| 2026-04-29 02:52 | 35.21649 | -114.56399 | 1640 ft | 118 kts | 176° |
| 2026-04-29 02:52 | 35.20820 | -114.56336 | 1515 ft | 123 kts | 176° |
| 2026-04-29 02:52 | 35.19911 | -114.56269 | 1418 ft | 135 kts | 176° |
| 2026-04-29 02:52 | 35.19033 | -114.56231 | 1164 ft | 119 kts | 174° |
| 2026-04-29 02:53 | 35.18261 | -114.56150 | 1048 ft | 112 kts | 175° |
| 2026-04-29 02:53 | 35.17480 | -114.56103 | 907 ft | 112 kts | 174° |
| 2026-04-29 02:53 | 35.16736 | -114.56031 | 726 ft | 103 kts | 175° |
| 2026-04-29 02:53 | 35.16077 | -114.55979 | 698 ft | 87 kts | 176° |
| 2026-04-29 02:54 | 35.15625 | -114.55942 | 698 ft | 55 kts | 179° |
| 2026-04-29 02:54 | 35.15376 | -114.55881 | 698 ft | 22 kts | 106° |
| 2026-04-29 02:54 | 35.15408 | -114.55808 | 698 ft | 10 kts | 356° |
| 2026-04-29 02:54 | 35.15485 | -114.55815 | 698 ft | 12 kts | 357° |
| 2026-04-29 02:55 | 35.15577 | -114.55822 | 698 ft | 14 kts | 355° |
| 2026-04-29 02:55 | 35.15671 | -114.55830 | 698 ft | 16 kts | 357° |
| 2026-04-29 02:55 | 35.15774 | -114.55806 | 698 ft | 15 kts | 65° |
| 2026-04-29 02:55 | 35.15793 | -114.55675 | 698 ft | 15 kts | 56° |
| 2026-04-29 02:56 | 35.15886 | -114.55652 | 698 ft | 9 kts | 48° |
| 2026-04-29 02:56 | 35.15877 | -114.55636 | 698 ft | 0 kts | 177° |